Time,TemperatureF,DewpointF,PressureIn,WindDirection,WindDirectionDegrees,WindSpeedMPH,WindSpeedGustMPH,Humidity,HourlyPrecipIn,Conditions,Clouds,dailyrainin,SoftwareType,DateUTC
2013-01-18 00:12:00,-999.0,-99.9,-100.00,WSW,250,21.0,25.0,-999,-99.99,,,-99.99,,2013-01-18 05:12:00,
2013-01-18 00:43:00,-999.0,-99.9,-100.00,WSW,252,22.0,27.0,-999,-99.99,,,-99.99,,2013-01-18 05:43:00,
2013-01-18 01:43:00,-999.0,-99.9,-100.00,SW,231,17.0,21.0,-999,-99.99,,,-99.99,,2013-01-18 06:43:00,
2013-01-18 02:12:00,-999.0,-99.9,-100.00,WSW,248,20.0,26.0,-999,-99.99,,,-99.99,,2013-01-18 07:12:00,
2013-01-18 03:43:00,-999.0,-99.9,-100.00,SSW,200,5.0,9.0,-999,-99.99,,,-99.99,,2013-01-18 08:43:00,
2013-01-18 04:12:00,-999.0,-99.9,-100.00,West,280,12.0,17.0,-999,-99.99,,,-99.99,,2013-01-18 09:12:00,
2013-01-18 05:12:00,-999.0,-99.9,-100.00,WSW,258,15.0,18.0,-999,-99.99,,,-99.99,,2013-01-18 10:12:00,
2013-01-18 05:43:00,-999.0,-99.9,-100.00,SSE,164,4.0,8.0,-999,-99.99,,,-99.99,,2013-01-18 10:43:00,
2013-01-18 05:53:00,-999.0,-99.9,-100.00,SSE,164,4.0,8.0,-999,-99.99,,,-99.99,,2013-01-18 10:53:00,
2013-01-18 06:43:00,-999.0,-99.9,-100.00,SW,216,4.0,7.0,-999,-99.99,,,-99.99,,2013-01-18 11:43:00,
2013-01-18 07:12:00,-999.0,-99.9,-100.00,SW,230,6.0,10.0,-999,-99.99,,,-99.99,,2013-01-18 12:12:00,
2013-01-18 08:13:00,-999.0,-99.9,-100.00,SW,230,10.0,15.0,-999,-99.99,,,-99.99,,2013-01-18 13:13:00,
2013-01-18 08:23:00,-999.0,-99.9,-100.00,SW,226,10.0,13.0,-999,-99.99,,,-99.99,,2013-01-18 13:23:00,
2013-01-18 09:13:00,-999.0,-99.9,-100.00,SW,221,10.0,15.0,-999,-99.99,,,-99.99,,2013-01-18 14:13:00,
2013-01-18 09:43:00,-999.0,-99.9,-100.00,SW,229,14.0,19.0,-999,-99.99,,,-99.99,,2013-01-18 14:43:00,
2013-01-18 09:53:00,-999.0,-99.9,-100.00,SW,230,13.0,18.0,-999,-99.99,,,-99.99,,2013-01-18 14:53:00,
2013-01-18 10:03:00,-999.0,-99.9,-100.00,SW,228,14.0,19.0,-999,-99.99,,,-99.99,,2013-01-18 15:03:00,
2013-01-18 11:13:00,-999.0,-99.9,-100.00,WSW,239,13.0,18.0,-999,-99.99,,,-99.99,,2013-01-18 16:13:00,
2013-01-18 12:43:00,-999.0,-99.9,-100.00,SE,131,4.0,5.0,-999,-99.99,,,-99.99,,2013-01-18 17:43:00,
2013-01-18 14:13:00,-999.0,-99.9,-100.00,ESE,111,6.0,9.0,-999,-99.99,,,-99.99,,2013-01-18 19:13:00,
2013-01-18 14:43:00,-999.0,-99.9,-100.00,ESE,107,7.0,9.0,-999,-99.99,,,-99.99,,2013-01-18 19:43:00,
2013-01-18 15:43:00,-999.0,-99.9,-100.00,ESE,105,9.0,13.0,-999,-99.99,,,-99.99,,2013-01-18 20:43:00,
2013-01-18 16:23:00,-999.0,-99.9,-100.00,ESE,108,7.0,13.0,-999,-99.99,,,-99.99,,2013-01-18 21:23:00,
2013-01-18 17:12:00,-999.0,-99.9,-100.00,ESE,114,9.0,11.0,-999,-99.99,,,-99.99,,2013-01-18 22:12:00,
2013-01-18 18:43:00,-999.0,-99.9,-100.00,ESE,108,9.0,11.0,-999,-99.99,,,-99.99,,2013-01-18 23:43:00,
2013-01-18 19:43:00,-999.0,-99.9,-100.00,East,98,8.0,11.0,-999,-99.99,,,-99.99,,2013-01-19 00:43:00,
2013-01-18 20:13:00,-999.0,-99.9,-100.00,East,83,8.0,10.0,-999,-99.99,,,-99.99,,2013-01-19 01:13:00,
2013-01-18 21:12:00,-999.0,-99.9,-100.00,East,92,7.0,9.0,-999,-99.99,,,-99.99,,2013-01-19 02:12:00,
2013-01-18 21:43:00,-999.0,-99.9,-100.00,East,92,6.0,9.0,-999,-99.99,,,-99.99,,2013-01-19 02:43:00,
2013-01-18 23:43:00,-999.0,-99.9,-100.00,East,98,6.0,7.0,-999,-99.99,,,-99.99,,2013-01-19 04:43:00,